Time;durP1;ratioP1;P1;durP2;ratioP2;P2;SDS_P1;SDS_P2;PMS_P1;PMS_P2;Temp;Humidity;BMP_temperature;BMP_pressure;BME280_temperature;BME280_humidity;BME280_pressure;Samples;Min_cycle;Max_cycle;Signal;HPM_P1;HPM_P2
2021/06/14 00:02:18;;;;;;;5.00;2.88;;;;;;;11.66;75.59;102185.19;5070184;28;20031;-76
2021/06/14 00:04:43;;;;;;;5.20;2.22;;;;;;;11.66;76.09;102182.56;5066733;28;20024;-76
2021/06/14 00:07:09;;;;;;;4.03;2.60;;;;;;;11.81;76.10;102175.63;5071982;28;20067;-77
2021/06/14 00:09:34;;;;;;;4.50;2.08;;;;;;;11.91;74.96;102171.28;5051997;28;20024;-76
2021/06/14 00:12:00;;;;;;;2.70;2.47;;;;;;;11.67;76.01;102175.59;5048530;28;20021;-76
2021/06/14 00:14:26;;;;;;;2.90;2.08;;;;;;;11.60;75.65;102172.09;5046674;28;20335;-76
2021/06/14 00:16:51;;;;;;;2.95;2.70;;;;;;;11.51;76.06;102164.19;5047346;28;20016;-76
2021/06/14 00:19:16;;;;;;;3.67;2.67;;;;;;;11.28;77.47;102164.97;5047916;28;20028;-76
2021/06/14 00:21:42;;;;;;;3.42;2.28;;;;;;;11.41;76.82;102170.25;5067126;28;20021;-76
2021/06/14 00:24:07;;;;;;;3.70;2.53;;;;;;;11.19;76.77;102169.28;5048182;28;20030;-76
2021/06/14 00:26:33;;;;;;;3.08;2.13;;;;;;;11.46;76.61;102168.53;5047104;28;20020;-76
2021/06/14 00:28:59;;;;;;;3.90;2.38;;;;;;;11.49;75.68;102172.06;5045054;28;20027;-77
2021/06/14 00:31:24;;;;;;;3.20;2.50;;;;;;;11.59;75.04;102169.44;5046011;28;20020;-76
2021/06/14 00:33:50;;;;;;;2.50;1.65;;;;;;;11.66;74.45;102164.22;5045712;28;20427;-76
2021/06/14 00:36:15;;;;;;;3.40;1.80;;;;;;;11.73;74.07;102169.50;5045928;28;20044;-76
2021/06/14 00:38:41;;;;;;;2.35;2.15;;;;;;;11.76;74.39;102169.50;5047842;28;20021;-76
2021/06/14 00:41:07;;;;;;;2.78;2.03;;;;;;;11.80;73.43;102158.16;5049016;28;20024;-76
2021/06/14 00:43:34;;;;;;;4.18;2.10;;;;;;;11.64;74.75;102157.25;5049583;28;20040;-76
2021/06/14 00:45:59;;;;;;;2.95;1.95;;;;;;;11.60;74.93;102168.56;5080265;28;20319;-76
2021/06/14 00:48:25;;;;;;;3.45;2.00;;;;;;;11.73;73.79;102159.03;5044259;28;20025;-76
2021/06/14 00:51:02;;;;;;;2.30;1.63;;;;;;;11.49;75.00;102151.13;5044727;28;20308;-76
2021/06/14 00:53:34;;;;;;;2.33;1.90;;;;;;;11.60;74.70;102156.38;5043638;28;20035;-76
2021/06/14 00:56:08;;;;;;;1.95;1.65;;;;;;;11.66;74.27;102159.00;5045653;28;20342;-76
2021/06/14 00:58:33;;;;;;;3.25;1.92;;;;;;;11.67;73.24;102155.53;5063350;28;20071;-76
2021/06/14 01:01:02;;;;;;;2.47;1.98;;;;;;;11.81;72.88;102160.78;5047864;28;20036;-76
2021/06/14 01:03:27;;;;;;;3.53;1.77;;;;;;;11.66;73.22;102156.38;5045445;28;20020;-76
2021/06/14 01:06:04;;;;;;;3.42;1.83;;;;;;;11.74;73.01;102155.53;5047102;28;20103;-76
2021/06/14 01:08:31;;;;;;;2.03;1.80;;;;;;;11.54;73.49;102164.19;5047165;28;20029;-76
2021/06/14 01:10:58;;;;;;;4.20;2.10;;;;;;;11.65;73.32;102161.63;5050603;28;20020;-76
2021/06/14 01:13:40;;;;;;;1.55;1.45;;;;;;;11.70;72.82;102141.56;5067851;28;20028;-76
2021/06/14 01:16:19;;;;;;;1.67;1.58;;;;;;;11.73;72.74;102138.09;5050602;28;20020;-76
2021/06/14 01:18:48;;;;;;;3.42;2.10;;;;;;;11.29;74.50;102145.81;5086394;28;20055;-76
2021/06/14 01:21:49;;;;;;;3.17;2.20;;;;;;;11.30;74.86;102147.56;5077421;28;20032;-77
2021/06/14 01:24:33;;;;;;;2.22;1.70;;;;;;;11.56;73.44;102144.16;5062069;28;20447;-76
2021/06/14 01:27:07;;;;;;;3.72;1.88;;;;;;;11.61;73.44;102142.41;5058594;28;20107;-76
2021/06/14 01:29:34;;;;;;;2.25;1.67;;;;;;;11.22;74.99;102136.19;5076696;28;20024;-76
2021/06/14 01:32:00;;;;;;;3.85;2.13;;;;;;;11.21;75.44;102130.94;5076245;28;20025;-76
2021/06/14 01:34:28;;;;;;;2.88;1.95;;;;;;;11.31;75.34;102130.09;5041463;28;20032;-76
2021/06/14 01:36:56;;;;;;;3.08;1.90;;;;;;;11.40;74.39;102129.25;5059469;28;20020;-76
2021/06/14 01:39:23;;;;;;;2.17;1.73;;;;;;;11.03;75.61;102119.53;5044569;28;20026;-76
2021/06/14 01:41:49;;;;;;;3.95;2.08;;;;;;;10.39;79.15;102120.91;5077929;28;20467;-76
2021/06/14 01:44:16;;;;;;;4.75;2.10;;;;;;;10.74;78.10;102129.84;5043838;28;20024;-75
2021/06/14 01:46:42;;;;;;;3.55;1.90;;;;;;;10.87;77.47;102117.72;5061627;28;20327;-76
2021/06/14 01:49:09;;;;;;;5.03;2.47;;;;;;;10.81;77.24;102118.53;5061964;28;20078;-76
2021/06/14 01:51:36;;;;;;;2.97;1.73;;;;;;;11.07;76.90;102115.19;5040846;28;20031;-76
2021/06/14 01:54:02;;;;;;;2.85;1.70;;;;;;;11.20;76.05;102103.06;5056667;28;20427;-76
2021/06/14 01:56:33;;;;;;;2.55;1.98;;;;;;;11.17;75.42;102114.38;5057353;28;20067;-76
2021/06/14 01:59:00;;;;;;;6.38;2.40;;;;;;;11.25;75.37;102114.41;5040467;28;20028;-77
2021/06/14 02:01:28;;;;;;;2.20;2.00;;;;;;;11.10;75.92;102110.00;5057592;28;20025;-76
2021/06/14 02:03:55;;;;;;;2.40;2.17;;;;;;;11.13;75.48;102110.00;5023595;28;20032;-76
2021/06/14 02:06:21;;;;;;;2.88;1.70;;;;;;;11.22;74.92;102109.16;5074934;28;20051;-76
2021/06/14 02:08:47;;;;;;;5.03;2.15;;;;;;;11.08;75.90;102106.47;5057094;28;20148;-76
2021/06/14 02:11:13;;;;;;;2.05;1.75;;;;;;;10.73;76.40;102100.22;5041146;28;20025;-76
2021/06/14 02:13:39;;;;;;;2.42;1.60;;;;;;;10.59;77.60;102097.53;5060635;28;20029;-75
2021/06/14 02:16:04;;;;;;;2.10;1.83;;;;;;;10.67;77.35;102094.09;5043819;28;20339;-79
2021/06/14 02:18:29;;;;;;;3.28;1.88;;;;;;;10.81;76.00;102090.69;5044252;28;20131;-75
2021/06/14 02:20:55;;;;;;;3.05;1.63;;;;;;;10.90;75.77;102089.84;5060798;28;20028;-77
2021/06/14 02:23:21;;;;;;;3.42;2.05;;;;;;;10.74;76.63;102085.41;5061088;28;20032;-76
2021/06/14 02:25:46;;;;;;;2.97;1.70;;;;;;;10.84;77.02;102076.75;5071660;28;20036;-76
2021/06/14 02:28:12;;;;;;;2.67;2.08;;;;;;;10.85;76.41;102069.78;5064796;28;20031;-76
2021/06/14 02:30:37;;;;;;;3.22;2.40;;;;;;;10.62;77.05;102074.03;5062429;28;20024;-77
2021/06/14 02:33:03;;;;;;;3.40;2.00;;;;;;;10.65;76.98;102081.00;5045111;28;20082;-76
2021/06/14 02:35:28;;;;;;;2.30;2.13;;;;;;;10.41;78.01;102084.34;5061200;28;20078;-76
2021/06/14 02:38:00;;;;;;;3.78;1.92;;;;;;;10.47;78.03;102084.38;5060307;28;20024;-76
2021/06/14 02:40:29;;;;;;;2.45;1.90;;;;;;;10.62;77.21;102075.75;5063515;28;20021;-76
2021/06/14 02:42:55;;;;;;;2.55;1.70;;;;;;;10.75;76.06;102068.88;5049250;28;20017;-76
2021/06/14 02:45:24;;;;;;;2.13;1.63;;;;;;;10.93;75.03;102070.69;5047400;28;20127;-77
2021/06/14 02:47:49;;;;;;;2.78;1.65;;;;;;;10.99;75.17;102071.59;5045853;28;20020;-77
2021/06/14 02:50:16;;;;;;;3.50;1.83;;;;;;;10.82;75.48;102065.41;5044920;28;20036;-75
2021/06/14 02:52:42;;;;;;;5.72;2.83;;;;;;;10.69;76.04;102066.22;5043705;28;20021;-76
2021/06/14 02:55:13;;;;;;;3.72;1.98;;;;;;;10.36;77.53;102067.75;5046031;28;20458;-76
2021/06/14 02:57:39;;;;;;;2.25;1.80;;;;;;;10.69;76.44;102066.22;5046433;28;20024;-76
2021/06/14 03:00:07;;;;;;;1.70;1.60;;;;;;;10.88;75.20;102069.78;5044681;28;20024;-76
2021/06/14 03:02:32;;;;;;;4.20;1.90;;;;;;;10.86;75.31;102067.16;5044948;28;20024;-76
2021/06/14 03:04:58;;;;;;;2.30;2.03;;;;;;;10.84;75.00;102058.47;5060434;28;20033;-76
2021/06/14 03:07:24;;;;;;;3.60;1.85;;;;;;;11.05;74.06;102072.47;5045794;28;20029;-76
2021/06/14 03:09:51;;;;;;;2.63;1.95;;;;;;;11.08;74.34;102069.88;5045920;28;20324;-76
2021/06/14 03:12:20;;;;;;;3.05;1.88;;;;;;;11.15;73.94;102069.00;5061770;28;20410;-76
2021/06/14 03:14:49;;;;;;;3.33;1.70;;;;;;;11.18;73.77;102073.38;5060998;28;20024;-76
2021/06/14 03:17:14;;;;;;;1.92;1.50;;;;;;;11.16;73.58;102070.78;5059653;28;20017;-76
2021/06/14 03:19:40;;;;;;;1.73;1.63;;;;;;;11.19;73.47;102076.00;5060943;28;20082;-75
2021/06/14 03:22:06;;;;;;;3.67;1.85;;;;;;;11.15;74.10;102071.63;5043854;28;20378;-76
2021/06/14 03:24:33;;;;;;;2.25;1.90;;;;;;;11.18;74.17;102066.44;5060077;28;20074;-76
2021/06/14 03:26:59;;;;;;;2.50;1.90;;;;;;;11.09;73.99;102071.63;5042549;28;20028;-76
2021/06/14 03:29:25;;;;;;;2.47;1.92;;;;;;;10.99;74.92;102061.13;5058943;28;20086;-76
2021/06/14 03:31:51;;;;;;;2.80;1.98;;;;;;;11.12;74.55;102063.78;5058955;28;20065;-76
2021/06/14 03:34:18;;;;;;;2.45;1.90;;;;;;;10.91;74.99;102064.59;5043099;28;20039;-77
2021/06/14 03:36:44;;;;;;;2.63;1.90;;;;;;;10.92;74.78;102068.94;5044050;28;20031;-77
2021/06/14 03:39:09;;;;;;;4.13;2.55;;;;;;;11.03;74.11;102056.78;5043962;28;20119;-76
2021/06/14 03:41:43;;;;;;;3.35;2.08;;;;;;;11.10;74.55;102062.91;5043837;28;20059;-76
2021/06/14 03:44:08;;;;;;;2.35;1.98;;;;;;;11.20;74.15;102049.00;5059060;28;20012;-76
2021/06/14 03:46:34;;;;;;;2.70;1.90;;;;;;;11.23;74.71;102056.84;5060139;28;20107;-76
2021/06/14 03:48:59;;;;;;;1.70;1.50;;;;;;;11.37;73.65;102048.16;5042768;28;20024;-76
2021/06/14 03:51:25;;;;;;;2.30;2.13;;;;;;;11.52;73.28;102040.34;5041753;28;20024;-76
2021/06/14 03:53:56;;;;;;;3.70;1.88;;;;;;;11.56;73.39;102035.97;5058257;28;20462;-76
2021/06/14 03:56:23;;;;;;;3.88;2.50;;;;;;;11.68;72.78;102041.22;5061481;28;20108;-76
2021/06/14 03:58:49;;;;;;;3.42;2.10;;;;;;;11.77;72.91;102040.38;5059371;28;20078;-76
2021/06/14 04:01:14;;;;;;;3.47;2.33;;;;;;;11.86;72.31;102035.09;5062646;28;20056;-76
2021/06/14 04:03:41;;;;;;;2.70;2.20;;;;;;;11.95;72.14;102026.41;5046279;28;20032;-76
2021/06/14 04:06:06;;;;;;;3.00;1.80;;;;;;;11.95;71.54;102029.03;5080865;28;20478;-75
2021/06/14 04:08:32;;;;;;;2.17;1.98;;;;;;;12.09;71.27;102029.03;5062393;28;20055;-76
2021/06/14 04:10:57;;;;;;;6.32;2.08;;;;;;;12.23;70.79;102035.13;5061715;28;20351;-76
2021/06/14 04:13:23;;;;;;;3.60;1.40;;;;;;;12.32;69.77;102034.22;5043737;28;20100;-76
2021/06/14 04:15:48;;;;;;;4.55;2.08;;;;;;;12.41;68.96;102022.88;5063410;28;20458;-77
2021/06/14 04:18:16;;;;;;;3.33;1.85;;;;;;;12.51;69.47;102020.19;5046577;28;20024;-75
2021/06/14 04:20:41;;;;;;;1.92;1.83;;;;;;;12.58;68.74;102028.03;5062326;28;20051;-76
2021/06/14 04:23:06;;;;;;;2.67;2.03;;;;;;;12.63;69.08;102031.53;5044562;28;20020;-76
2021/06/14 04:25:32;;;;;;;4.40;1.85;;;;;;;12.74;68.83;102031.50;5043240;28;20036;-76
2021/06/14 04:27:57;;;;;;;3.08;1.52;;;;;;;12.83;68.22;102041.94;5042137;28;20020;-76
2021/06/14 04:30:22;;;;;;;3.20;1.60;;;;;;;12.87;67.21;102022.69;5059467;28;20027;-76
2021/06/14 04:32:48;;;;;;;2.38;1.70;;;;;;;12.98;67.40;102028.75;5060072;28;20426;-76
2021/06/14 04:35:14;;;;;;;2.70;1.33;;;;;;;13.05;67.13;102034.84;5060228;28;20329;-76
2021/06/14 04:37:39;;;;;;;3.70;1.75;;;;;;;13.19;66.89;102045.25;5061520;28;20020;-76
2021/06/14 04:40:07;;;;;;;2.05;1.65;;;;;;;13.25;66.48;102045.25;5061525;28;20025;-76
2021/06/14 04:42:32;;;;;;;1.63;1.52;;;;;;;13.40;66.68;102051.28;5064524;28;20025;-76
2021/06/14 04:44:57;;;;;;;1.70;1.20;;;;;;;13.50;66.35;102050.34;5047452;28;20111;-76
2021/06/14 04:47:23;;;;;;;3.72;1.67;;;;;;;13.61;65.61;102048.53;5063032;28;20400;-76
2021/06/14 04:49:48;;;;;;;1.90;1.65;;;;;;;13.64;66.95;102047.63;5049074;28;20095;-76
2021/06/14 04:52:14;;;;;;;2.15;1.58;;;;;;;13.77;65.54;102053.66;5061884;28;20601;-76
2021/06/14 04:54:40;;;;;;;3.67;1.98;;;;;;;13.90;66.36;102050.03;5046995;28;20230;-76
2021/06/14 04:57:06;;;;;;;5.88;1.73;;;;;;;13.99;66.00;102049.97;5062931;28;20021;-76
2021/06/14 04:59:31;;;;;;;3.45;1.80;;;;;;;14.08;65.04;102053.41;5042281;28;20386;-76
2021/06/14 05:01:56;;;;;;;3.45;1.42;;;;;;;14.11;64.58;102046.38;5063951;28;20040;-76
2021/06/14 05:04:22;;;;;;;2.35;1.60;;;;;;;14.23;63.80;102053.25;5046290;28;20021;-76
2021/06/14 05:06:47;;;;;;;1.20;1.10;;;;;;;14.36;64.33;102048.75;5059377;28;20051;-76
2021/06/14 05:09:12;;;;;;;2.80;1.45;;;;;;;14.36;63.83;102051.38;5059226;28;20107;-76
2021/06/14 05:11:38;;;;;;;3.05;1.55;;;;;;;14.50;62.27;102056.47;5058913;28;20024;-76
2021/06/14 05:14:03;;;;;;;3.47;1.05;;;;;;;14.63;62.99;102051.97;5064655;28;20035;-76
2021/06/14 05:16:28;;;;;;;2.42;1.77;;;;;;;14.78;63.64;102046.53;5062064;28;20436;-76
2021/06/14 05:18:54;;;;;;;4.78;1.88;;;;;;;14.80;63.80;102046.53;5045847;28;20020;-77
2021/06/14 05:21:19;;;;;;;4.28;1.70;;;;;;;14.95;63.63;102048.94;5045504;28;20435;-76
2021/06/14 05:23:45;;;;;;;3.50;1.58;;;;;;;15.08;63.33;102048.78;5060698;28;20017;-76
2021/06/14 05:26:10;;;;;;;3.75;1.85;;;;;;;15.33;62.58;102044.91;5084326;28;20367;-77
2021/06/14 05:28:35;;;;;;;2.72;1.60;;;;;;;15.79;60.97;102042.44;5052671;28;20024;-77
2021/06/14 05:31:01;;;;;;;3.63;1.80;;;;;;;16.26;59.35;102043.44;5046770;28;20035;-76
2021/06/14 05:33:26;;;;;;;8.05;1.70;;;;;;;16.59;57.83;102040.19;5048288;28;20482;-78
2021/06/14 05:35:51;;;;;;;12.48;2.47;;;;;;;16.72;56.91;102028.47;5046859;28;20025;-76
2021/06/14 05:38:17;;;;;;;4.72;2.00;;;;;;;17.50;54.47;102035.59;5062249;28;20435;-76
2021/06/14 05:40:42;;;;;;;4.82;1.30;;;;;;;17.47;53.80;102025.94;5047524;28;20025;-76
2021/06/14 05:43:07;;;;;;;2.38;1.15;;;;;;;18.52;50.76;102025.03;5065971;28;20020;-76
2021/06/14 05:45:33;;;;;;;1.55;1.30;;;;;;;19.17;49.07;102021.38;5064646;28;20024;-76
2021/06/14 05:47:58;;;;;;;2.63;1.30;;;;;;;19.76;47.24;102020.31;5064275;28;20032;-76
2021/06/14 05:50:23;;;;;;;3.00;1.65;;;;;;;20.85;44.22;102024.47;5043973;28;20432;-77
2021/06/14 05:52:49;;;;;;;5.38;1.65;;;;;;;20.99;42.53;102016.81;5044112;28;20020;-78
2021/06/14 05:55:14;;;;;;;3.53;1.15;;;;;;;20.97;42.82;102010.72;5060654;28;20034;-77
2021/06/14 05:57:40;;;;;;;4.25;1.45;;;;;;;20.91;42.47;102001.22;5044217;28;20339;-78
2021/06/14 06:00:09;;;;;;;7.60;1.60;;;;;;;21.17;42.49;102001.09;5044122;28;20032;-77
2021/06/14 06:02:34;;;;;;;2.45;1.45;;;;;;;20.43;42.61;102005.63;5056206;28;20155;-77
2021/06/14 06:05:00;;;;;;;3.65;1.35;;;;;;;22.28;39.31;102009.72;5041000;28;20344;-78
2021/06/14 06:07:26;;;;;;;1.77;1.67;;;;;;;20.68;41.26;102015.38;5026703;28;20543;-79
2021/06/14 06:09:52;;;;;;;4.50;1.90;;;;;;;19.86;42.23;102018.25;5041854;28;20033;-78
2021/06/14 06:12:18;;;;;;;3.30;1.80;;;;;;;17.29;50.00;102019.34;5025007;28;20455;-77
2021/06/14 06:14:44;;;;;;;3.92;1.98;;;;;;;19.82;45.11;102010.47;5023844;28;20306;-78
2021/06/14 06:17:09;;;;;;;3.05;1.80;;;;;;;20.35;43.93;102005.03;5042215;28;20024;-78
2021/06/14 06:19:35;;;;;;;1.63;1.50;;;;;;;22.80;37.96;102001.16;5025738;28;20069;-77
2021/06/14 06:22:00;;;;;;;2.17;1.73;;;;;;;22.00;39.09;102012.75;5024731;28;20020;-77
2021/06/14 06:24:25;;;;;;;2.45;1.50;;;;;;;22.33;38.71;102007.69;5042597;28;20025;-77
2021/06/14 06:26:51;;;;;;;1.92;1.58;;;;;;;23.52;36.12;102002.16;5027815;28;20025;-78
2021/06/14 06:29:16;;;;;;;3.63;1.98;;;;;;;22.58;38.42;102010.16;5044347;28;20052;-78
2021/06/14 06:31:41;;;;;;;5.50;2.42;;;;;;;23.26;36.90;102000.75;5031571;28;20044;-77
2021/06/14 06:34:07;;;;;;;2.75;1.98;;;;;;;23.54;36.63;101994.06;5027243;28;20021;-80
2021/06/14 06:36:33;;;;;;;4.43;1.92;;;;;;;21.19;41.44;101993.94;5061307;28;20336;-81
2021/06/14 06:38:58;;;;;;;5.53;2.13;;;;;;;23.02;38.46;101982.34;5047259;28;20356;-77
2021/06/14 06:41:23;;;;;;;6.25;2.85;;;;;;;24.22;35.26;101970.09;5045067;28;20032;-77
2021/06/14 06:43:51;;;;;;;3.15;2.00;;;;;;;24.16;35.06;101972.22;5040964;28;20021;-78
2021/06/14 06:46:17;;;;;;;3.47;2.13;;;;;;;23.39;36.92;101969.03;5058274;28;20031;-81
2021/06/14 06:48:42;;;;;;;5.93;2.80;;;;;;;20.94;41.31;101971.88;5060879;28;20020;-80
2021/06/14 06:51:07;;;;;;;3.45;2.13;;;;;;;21.63;40.67;101972.63;5060073;28;20055;-80
2021/06/14 06:53:33;;;;;;;7.55;2.55;;;;;;;23.79;35.95;101967.00;5046522;28;20063;-79
2021/06/14 06:55:59;;;;;;;4.45;2.85;;;;;;;19.54;44.92;101963.66;5046489;28;20028;-78
2021/06/14 06:58:25;;;;;;;8.50;2.60;;;;;;;21.90;39.36;101959.94;5039926;28;20170;-80
2021/06/14 07:00:51;;;;;;;12.77;2.40;;;;;;;20.18;44.21;101960.56;5053106;28;20434;-77
2021/06/14 07:03:17;;;;;;;6.00;2.72;;;;;;;20.63;43.77;101948.28;5026295;28;20021;-78
2021/06/14 07:05:43;;;;;;;4.50;2.75;;;;;;;23.80;36.79;101950.94;5039760;28;20143;-78
2021/06/14 07:08:12;;;;;;;6.15;2.53;;;;;;;24.69;34.64;101944.44;5030331;28;20306;-79
2021/06/14 07:10:38;;;;;;;5.32;2.45;;;;;;;24.40;34.49;101946.00;5061935;28;20036;-83
2021/06/14 07:13:03;;;;;;;3.85;2.85;;;;;;;23.46;35.40;101944.66;5044901;28;20024;-78
2021/06/14 07:15:29;;;;;;;5.03;2.38;;;;;;;23.20;37.04;101929.13;5057809;28;20028;-80
2021/06/14 07:17:54;;;;;;;3.72;2.53;;;;;;;23.73;36.19;101932.66;5040936;28;20025;-81
2021/06/14 07:20:20;;;;;;;2.85;2.65;;;;;;;21.52;40.82;101942.97;5040035;28;20017;-79
2021/06/14 07:22:45;;;;;;;3.08;2.25;;;;;;;21.52;40.58;101932.34;5038530;28;20017;-78
2021/06/14 07:25:12;;;;;;;6.50;2.72;;;;;;;23.33;36.08;101927.56;5036717;28;20032;-80
2021/06/14 07:27:38;;;;;;;3.53;2.60;;;;;;;24.71;34.22;101928.31;5056106;28;20070;-82
2021/06/14 07:30:08;;;;;;;3.47;2.75;;;;;;;25.80;32.22;101919.22;5040455;28;20108;-81
2021/06/14 07:32:33;;;;;;;3.38;2.58;;;;;;;26.63;31.45;101915.81;5069227;28;20033;-79
2021/06/14 07:35:01;;;;;;;4.88;2.67;;;;;;;27.48;29.22;101922.78;5041838;28;20569;-79
2021/06/14 07:37:27;;;;;;;3.22;2.40;;;;;;;25.64;32.49;101923.78;5043878;28;20042;-80
2021/06/14 07:39:52;;;;;;;4.07;2.72;;;;;;;27.34;30.37;101918.34;5037476;28;20420;-80
2021/06/14 07:42:18;;;;;;;3.03;2.13;;;;;;;27.32;29.10;101909.53;5053100;28;20107;-80
2021/06/14 07:44:44;;;;;;;4.82;3.03;;;;;;;27.11;29.71;101917.22;5058932;28;20103;-75
2021/06/14 07:47:10;;;;;;;5.60;2.22;;;;;;;25.89;32.01;101916.94;5049913;28;20092;-77
2021/06/14 07:49:36;;;;;;;5.05;2.55;;;;;;;26.72;31.41;101906.34;5059217;28;20028;-80
2021/06/14 07:52:03;;;;;;;5.03;2.63;;;;;;;29.56;26.72;101905.94;5055165;28;20027;-79
2021/06/14 07:54:28;;;;;;;3.85;2.70;;;;;;;27.89;28.66;101894.00;5040529;28;20576;-78
2021/06/14 07:56:54;;;;;;;5.05;2.45;;;;;;;27.97;28.95;101897.84;5049451;28;20025;-78
2021/06/14 07:59:19;;;;;;;7.32;2.50;;;;;;;29.14;27.44;101882.22;5058678;28;20079;-78
2021/06/14 08:01:44;;;;;;;5.63;2.53;;;;;;;28.55;28.50;101881.22;5059403;28;20024;-82
2021/06/14 08:04:10;;;;;;;4.35;2.50;;;;;;;30.13;25.62;101872.69;5041249;28;20123;-77
2021/06/14 08:06:35;;;;;;;3.53;2.60;;;;;;;31.17;23.42;101858.75;5042207;28;20063;-77
2021/06/14 08:09:12;;;;;;;5.00;2.35;;;;;;;27.20;29.17;101872.81;5042308;28;20037;-79
2021/06/14 08:11:38;;;;;;;3.75;2.58;;;;;;;25.49;31.76;101877.44;5043079;28;20124;-80
2021/06/14 08:14:05;;;;;;;4.88;2.45;;;;;;;25.23;31.53;101868.28;5024533;28;20049;-80
2021/06/14 08:16:40;;;;;;;2.50;2.00;;;;;;;27.89;27.53;101857.28;5039078;28;20064;-81
2021/06/14 08:19:10;;;;;;;2.63;2.30;;;;;;;25.47;32.07;101853.47;5039338;28;20021;-80
2021/06/14 08:21:49;;;;;;;3.40;2.80;;;;;;;25.84;31.55;101852.13;5035298;28;20455;-81
2021/06/14 08:27:14;;;;;;;3.53;2.13;;;;;;;24.55;33.04;101848.16;5064420;28;20054;-80
2021/06/14 08:29:43;;;;;;;3.92;2.45;;;;;;;23.32;36.77;101840.53;5071183;28;20028;-81
2021/06/14 08:32:17;;;;;;;3.58;2.70;;;;;;;22.94;37.53;101840.66;5046405;28;20040;-82
2021/06/14 08:34:42;;;;;;;5.53;2.78;;;;;;;22.07;39.40;101836.81;5046450;28;20042;-77
2021/06/14 08:37:08;;;;;;;4.50;2.83;;;;;;;21.68;40.95;101842.16;5061047;28;20107;-77
2021/06/14 08:39:33;;;;;;;5.88;2.90;;;;;;;22.00;39.30;101831.84;5060459;28;20063;-81
2021/06/14 08:41:59;;;;;;;4.25;2.88;;;;;;;21.78;40.67;101833.69;5059686;28;20328;-77
2021/06/14 08:44:25;;;;;;;5.85;3.28;;;;;;;20.88;42.67;101826.03;5060662;28;20056;-80
2021/06/14 08:46:57;;;;;;;3.55;2.92;;;;;;;20.63;43.69;101825.28;5037392;28;20031;-80
2021/06/14 08:49:24;;;;;;;4.80;3.00;;;;;;;20.74;43.56;101812.50;5060908;28;20031;-80
2021/06/14 08:51:53;;;;;;;5.63;3.13;;;;;;;20.86;43.17;101813.75;5057930;28;20025;-78
2021/06/14 08:54:19;;;;;;;5.35;3.10;;;;;;;20.89;44.11;101811.00;5057921;28;20050;-79
2021/06/14 08:56:45;;;;;;;2.97;2.70;;;;;;;21.31;42.33;101810.09;5041267;28;20024;-79
2021/06/14 08:59:11;;;;;;;4.53;3.03;;;;;;;21.54;42.60;101806.44;5029885;28;20090;-81
2021/06/14 09:01:36;;;;;;;7.05;3.08;;;;;;;21.18;43.05;101796.44;5034971;28;20020;-80
2021/06/14 09:04:02;;;;;;;4.25;2.88;;;;;;;22.08;41.31;101792.44;5056831;28;20025;-80
2021/06/14 09:06:27;;;;;;;9.13;3.33;;;;;;;21.80;41.74;101793.75;5040491;28;20047;-82
2021/06/14 09:09:00;;;;;;;5.97;3.28;;;;;;;22.27;41.21;101795.09;5040555;28;20374;-80
2021/06/14 09:11:28;;;;;;;7.63;3.00;;;;;;;21.83;41.45;101795.38;5033234;28;20025;-78
2021/06/14 09:14:02;;;;;;;3.85;3.40;;;;;;;21.44;41.78;101789.97;5041574;28;20017;-83
2021/06/14 09:16:33;;;;;;;5.60;3.00;;;;;;;21.67;41.48;101789.94;5030971;28;20159;-81
2021/06/14 09:18:59;;;;;;;4.25;3.08;;;;;;;21.44;41.94;101787.31;5058592;28;20032;-76
2021/06/14 09:21:27;;;;;;;5.95;2.70;;;;;;;21.35;42.43;101771.81;5071814;28;20027;-79
2021/06/14 09:23:54;;;;;;;3.67;2.83;;;;;;;21.74;41.76;101773.59;5066754;28;20028;-79
2021/06/14 09:26:57;;;;;;;5.32;3.00;;;;;;;21.70;41.10;101761.38;5067969;28;20021;-81
2021/06/14 09:29:27;;;;;;;6.43;3.20;;;;;;;21.92;41.74;101765.69;5042548;28;20455;-79
2021/06/14 09:31:55;;;;;;;6.68;2.80;;;;;;;21.77;40.89;101762.84;5035409;28;20021;-81
2021/06/14 09:34:35;;;;;;;2.97;2.70;;;;;;;22.02;40.59;101756.38;5043547;28;20016;-79
2021/06/14 09:37:03;;;;;;;9.95;2.78;;;;;;;22.26;40.20;101762.31;5029557;28;20020;-79
2021/06/14 09:39:57;;;;;;;5.45;3.00;;;;;;;22.18;40.36;101756.47;5060295;28;20025;-79
2021/06/14 09:42:26;;;;;;;5.20;2.88;;;;;;;22.25;40.88;101762.34;5040988;28;20047;-79
2021/06/14 09:44:53;;;;;;;4.47;2.85;;;;;;;21.67;41.76;101748.25;5028186;28;20043;-79
2021/06/14 09:47:19;;;;;;;10.23;2.58;;;;;;;21.94;41.69;101747.88;5069864;28;20034;-79
2021/06/14 09:50:03;;;;;;;4.00;2.25;;;;;;;22.22;40.31;101738.56;5055162;28;20017;-81
2021/06/14 09:52:28;;;;;;;4.77;2.80;;;;;;;22.47;40.44;101750.69;5062212;28;20051;-81
2021/06/14 09:55:16;;;;;;;7.47;2.83;;;;;;;21.97;41.30;101742.41;5064131;28;20271;-78
2021/06/14 09:57:42;;;;;;;5.28;3.00;;;;;;;22.68;40.50;101738.97;5050305;28;20484;-76
2021/06/14 10:00:09;;;;;;;6.15;3.05;;;;;;;22.51;40.03;101738.94;5057393;28;20055;-78
2021/06/14 10:02:35;;;;;;;8.43;2.40;;;;;;;22.78;40.09;101724.25;5045763;28;20025;-77
2021/06/14 10:05:01;;;;;;;4.80;2.58;;;;;;;22.94;40.00;101726.13;5042529;28;20032;-79
2021/06/14 10:07:26;;;;;;;4.35;2.22;;;;;;;23.22;39.11;101728.22;5041786;28;20081;-77
2021/06/14 10:09:54;;;;;;;5.90;2.63;;;;;;;22.90;38.65;101721.88;5050351;28;20033;-78
2021/06/14 10:12:28;;;;;;;5.90;2.97;;;;;;;22.86;39.72;101709.66;5050871;28;20055;-79
2021/06/14 10:14:56;;;;;;;5.18;2.97;;;;;;;22.92;39.05;101709.38;5043389;28;20491;-78
2021/06/14 10:17:38;;;;;;;2.53;2.33;;;;;;;22.88;39.04;101715.78;5049551;28;20063;-79
2021/06/14 10:20:09;;;;;;;16.27;3.75;;;;;;;22.60;39.63;101719.84;5043428;28;20103;-79
2021/06/14 10:22:35;;;;;;;3.03;2.65;;;;;;;23.08;39.72;101702.28;5044023;28;20071;-77
2021/06/14 10:25:00;;;;;;;3.08;2.53;;;;;;;23.02;39.65;101713.25;5055904;28;20024;-77
2021/06/14 10:27:26;;;;;;;5.72;2.63;;;;;;;23.40;38.74;101709.53;5054140;28;20017;-77
2021/06/14 10:29:51;;;;;;;2.40;2.08;;;;;;;23.35;39.40;101700.91;5054666;28;20021;-76
2021/06/14 10:32:17;;;;;;;5.15;3.10;;;;;;;23.61;38.24;101697.69;5061681;28;20024;-77
2021/06/14 10:34:44;;;;;;;4.93;2.40;;;;;;;23.84;38.49;101703.50;5042788;28;20021;-76
2021/06/14 10:37:10;;;;;;;5.75;2.60;;;;;;;23.72;37.64;101705.06;5036458;28;20025;-77
2021/06/14 10:39:35;;;;;;;3.58;2.10;;;;;;;23.26;38.00;101712.91;5049148;28;20074;-76
2021/06/14 10:42:01;;;;;;;2.35;2.15;;;;;;;24.24;35.52;101708.41;5039327;28;20052;-78
2021/06/14 10:44:26;;;;;;;2.90;2.47;;;;;;;24.58;35.33;101709.09;5041476;28;20028;-76
2021/06/14 10:46:52;;;;;;;4.45;2.17;;;;;;;24.69;35.69;101717.38;5039181;28;20116;-79
2021/06/14 10:49:17;;;;;;;5.20;2.72;;;;;;;25.27;34.65;101712.09;5039452;28;20016;-77
2021/06/14 10:51:45;;;;;;;2.58;2.10;;;;;;;25.43;33.18;101702.16;5056199;28;20029;-79
2021/06/14 10:54:14;;;;;;;3.75;2.30;;;;;;;24.87;34.04;101714.53;5060112;28;20009;-77
2021/06/14 10:56:40;;;;;;;4.50;2.28;;;;;;;25.21;34.18;101717.81;5040519;28;20083;-78
2021/06/14 10:59:07;;;;;;;5.82;2.20;;;;;;;24.97;34.28;101705.00;5029367;28;20110;-78
2021/06/14 11:01:41;;;;;;;3.60;2.13;;;;;;;26.33;32.31;101709.78;5049442;28;20336;-81
2021/06/14 11:04:21;;;;;;;3.97;2.03;;;;;;;25.90;32.27;101700.06;5039421;28;20103;-80
2021/06/14 11:06:52;;;;;;;2.42;2.15;;;;;;;25.42;33.04;101700.44;5027035;28;20025;-80
2021/06/14 11:09:17;;;;;;;5.18;2.28;;;;;;;25.25;33.35;101681.91;5029782;28;20018;-77
2021/06/14 11:11:54;;;;;;;2.58;2.28;;;;;;;24.66;34.77;101703.34;5040839;28;20431;-82
2021/06/14 11:14:38;;;;;;;1.70;1.60;;;;;;;25.01;35.24;101711.03;5022956;28;20025;-79
2021/06/14 11:17:26;;;;;;;3.38;2.38;;;;;;;26.09;32.25;101704.25;5026218;28;20420;-80
2021/06/14 11:20:01;;;;;;;2.30;2.20;;;;;;;27.48;31.04;101703.63;5033735;28;20033;-78
2021/06/14 11:22:55;;;;;;;2.28;2.05;;;;;;;28.11;28.34;101698.16;5055943;28;20116;-80
2021/06/14 11:25:30;;;;;;;9.45;2.47;;;;;;;28.80;27.51;101684.00;5042493;28;20069;-78
2021/06/14 11:28:05;;;;;;;7.53;2.33;;;;;;;29.88;26.37;101676.38;5049522;28;20021;-79
2021/06/14 11:30:34;;;;;;;9.48;2.55;;;;;;;30.07;26.02;101675.69;5021901;28;20033;-79